Time;durP1;ratioP1;P1;durP2;ratioP2;P2;SDS_P1;SDS_P2;PMS_P1;PMS_P2;Temp;Humidity;BMP_temperature;BMP_pressure;BME280_temperature;BME280_humidity;BME280_pressure;Samples;Min_cycle;Max_cycle;Signal;HPM_P1;HPM_P2
2022/08/15 00:01:11;;;;;;;7.88;7.00;;;;;;;24.90;60.75;100193.09;5274934;28;20020;-70
2022/08/15 00:03:46;;;;;;;11.18;6.95;;;;;;;24.86;61.13;100182.03;5275394;28;20081;-69
2022/08/15 00:06:24;;;;;;;9.52;7.05;;;;;;;24.92;61.40;100183.75;5273401;28;20028;-69
2022/08/15 00:08:59;;;;;;;9.30;7.03;;;;;;;24.80;61.74;100183.00;5274542;28;20467;-69
2022/08/15 00:11:39;;;;;;;8.43;7.63;;;;;;;24.81;62.80;100189.97;5276723;28;20050;-69
2022/08/15 00:14:16;;;;;;;8.13;6.95;;;;;;;24.80;62.34;100193.72;5277765;28;20466;-70
2022/08/15 00:16:48;;;;;;;7.75;7.05;;;;;;;24.78;61.84;100195.84;5277621;28;20094;-69
2022/08/15 00:19:30;;;;;;;9.25;7.25;;;;;;;24.93;60.83;100200.66;5277540;28;20024;-69
2022/08/15 00:22:06;;;;;;;8.20;7.40;;;;;;;24.77;61.56;100194.19;5276900;28;20679;-70
2022/08/15 00:24:37;;;;;;;9.63;7.22;;;;;;;24.73;61.75;100191.16;5277371;28;20074;-70
2022/08/15 00:27:09;;;;;;;8.33;7.53;;;;;;;24.72;62.15;100199.47;5277993;28;20024;-69
2022/08/15 00:29:41;;;;;;;9.67;8.53;;;;;;;24.69;61.98;100205.28;5278232;28;20012;-70
2022/08/15 00:32:16;;;;;;;;;;;;;;;25.39;57.24;100196.94;5277140;28;20024;-69
2022/08/15 00:34:47;;;;;;;10.20;8.10;;;;;;;24.62;62.34;100205.41;5276540;28;20356;-70
2022/08/15 00:37:19;;;;;;;11.00;8.37;;;;;;;24.69;60.84;100191.91;5275862;28;20107;-70
2022/08/15 00:39:50;;;;;;;8.83;7.63;;;;;;;24.72;59.17;100194.09;5271143;28;20090;-70
2022/08/15 00:42:25;;;;;;;9.57;7.40;;;;;;;24.65;57.29;100194.22;5274615;28;20085;-70
2022/08/15 00:44:57;;;;;;;8.63;7.82;;;;;;;24.61;54.57;100193.09;5278245;28;20051;-70
2022/08/15 00:47:29;;;;;;;7.72;6.90;;;;;;;24.62;53.30;100191.22;5272480;28;20488;-70
2022/08/15 00:50:00;;;;;;;7.07;6.37;;;;;;;24.68;50.77;100191.09;5272254;28;20081;-70
2022/08/15 00:52:33;;;;;;;8.40;6.10;;;;;;;24.66;50.51;100193.22;5268854;28;20059;-70
2022/08/15 00:55:10;;;;;;;6.72;6.05;;;;;;;24.74;49.48;100197.38;5272209;28;20127;-70
2022/08/15 00:57:45;;;;;;;8.80;5.45;;;;;;;24.63;49.73;100198.22;5269722;28;20387;-70
2022/08/15 01:00:26;;;;;;;6.03;4.88;;;;;;;24.72;47.94;100194.91;5271728;28;20115;-70
2022/08/15 01:03:00;;;;;;;6.47;4.43;;;;;;;24.69;47.03;100200.75;5268520;28;20128;-70
2022/08/15 01:05:31;;;;;;;7.32;4.45;;;;;;;24.66;46.56;100195.03;5270905;28;20016;-70
2022/08/15 01:08:03;;;;;;;5.83;3.57;;;;;;;24.69;46.24;100199.94;5270189;28;20028;-70
2022/08/15 01:10:36;;;;;;;5.25;3.58;;;;;;;24.69;45.13;100195.38;5277217;28;20025;-70
2022/08/15 01:13:07;;;;;;;5.30;3.78;;;;;;;24.68;44.73;100187.59;5276183;28;20408;-70
2022/08/15 01:15:38;;;;;;;4.30;3.10;;;;;;;24.70;44.07;100185.47;5278084;28;20013;-70
2022/08/15 01:18:10;;;;;;;6.40;3.27;;;;;;;24.66;44.22;100179.81;5275659;28;20126;-69
2022/08/15 01:20:43;;;;;;;4.37;2.70;;;;;;;24.66;44.03;100187.00;5277502;28;20111;-69
2022/08/15 01:23:46;;;;;;;6.70;3.50;;;;;;;24.87;43.81;100181.00;5274421;28;20028;-69
2022/08/15 01:26:17;;;;;;;;;;;;;;;25.26;43.20;100181.13;5277696;28;20032;-70
2022/08/15 01:28:53;;;;;;;4.75;2.90;;;;;;;24.59;44.12;100187.19;5276832;28;20043;-70
2022/08/15 01:31:25;;;;;;;4.03;2.60;;;;;;;24.54;44.37;100192.41;5275662;28;21128;-70
2022/08/15 01:33:59;;;;;;;5.47;3.10;;;;;;;24.60;43.84;100187.97;5277690;28;20107;-70
2022/08/15 01:36:32;;;;;;;5.32;2.78;;;;;;;24.45;43.59;100181.28;5277124;28;20020;-70
2022/08/15 01:39:12;;;;;;;4.53;2.35;;;;;;;24.44;43.37;100182.34;5276060;28;20033;-70
2022/08/15 01:42:05;;;;;;;3.17;2.38;;;;;;;24.64;43.95;100186.44;5276881;28;20020;-70
2022/08/15 01:44:48;;;;;;;4.65;2.50;;;;;;;24.48;44.52;100183.47;5256562;28;20035;-70
2022/08/15 01:47:28;;;;;;;4.63;2.70;;;;;;;24.41;44.07;100192.69;5274469;28;20515;-70
2022/08/15 01:50:08;;;;;;;4.10;2.22;;;;;;;24.23;44.00;100197.13;5276991;28;20028;-70
2022/08/15 01:52:50;;;;;;;16.80;2.90;;;;;;;24.28;44.43;100207.13;5276499;28;20565;-70
2022/08/15 01:55:31;;;;;;;3.35;2.50;;;;;;;24.26;44.32;100203.88;5276736;28;20056;-70
2022/08/15 01:58:05;;;;;;;4.25;2.47;;;;;;;24.08;44.65;100193.31;5276225;28;20058;-70
2022/08/15 02:00:37;;;;;;;5.40;2.17;;;;;;;24.01;44.17;100194.22;5275156;28;20036;-70
2022/08/15 02:03:09;;;;;;;5.43;2.20;;;;;;;23.99;44.45;100185.66;5276898;28;20036;-70
2022/08/15 02:05:40;;;;;;;6.40;2.60;;;;;;;23.94;44.41;100187.38;5276423;28;20032;-70
2022/08/15 02:08:12;;;;;;;3.23;2.23;;;;;;;23.96;44.52;100188.78;5276527;28;20503;-70
2022/08/15 02:10:43;;;;;;;5.30;2.20;;;;;;;23.90;44.93;100187.03;5276616;28;20454;-70
2022/08/15 02:13:17;;;;;;;5.30;2.30;;;;;;;23.86;44.67;100185.06;5274989;28;20487;-70
2022/08/15 02:15:48;;;;;;;5.45;2.50;;;;;;;23.77;45.48;100192.63;5274347;28;20535;-70
2022/08/15 02:18:20;;;;;;;4.43;2.20;;;;;;;23.72;45.09;100185.31;5257966;28;20028;-70
2022/08/15 02:20:52;;;;;;;5.63;2.47;;;;;;;23.74;45.43;100193.09;5256605;28;20028;-70
2022/08/15 02:23:24;;;;;;;6.00;2.60;;;;;;;23.69;45.49;100191.13;5276132;28;20032;-69
2022/08/15 02:25:55;;;;;;;;;;;;;;;24.36;43.76;100193.38;5276806;28;20509;-70
2022/08/15 02:28:27;;;;;;;5.53;3.10;;;;;;;23.67;45.22;100195.88;5275796;28;19909;-69
2022/08/15 02:30:58;;;;;;;6.33;2.70;;;;;;;23.59;45.55;100182.00;5274577;28;20141;-69
2022/08/15 02:33:30;;;;;;;3.17;2.17;;;;;;;23.61;45.72;100179.94;5276530;28;20020;-69
2022/08/15 02:36:01;;;;;;;4.63;2.17;;;;;;;23.58;45.86;100191.09;5275516;28;20029;-69
2022/08/15 02:38:34;;;;;;;7.77;2.60;;;;;;;23.52;46.04;100192.81;5276032;28;20028;-70
2022/08/15 02:41:05;;;;;;;4.05;2.40;;;;;;;23.47;46.02;100185.50;5274062;28;20391;-69
2022/08/15 02:43:43;;;;;;;3.40;2.30;;;;;;;23.56;45.85;100191.31;5256757;28;20017;-69
2022/08/15 02:46:16;;;;;;;6.20;2.35;;;;;;;23.47;46.18;100198.84;5274461;28;20534;-69
2022/08/15 02:48:48;;;;;;;4.88;2.45;;;;;;;23.43;46.26;100195.03;5275190;28;20016;-69
2022/08/15 02:51:21;;;;;;;3.40;2.38;;;;;;;23.41;46.67;100199.81;5274710;28;20021;-69
2022/08/15 02:53:54;;;;;;;4.85;2.63;;;;;;;23.34;46.75;100188.41;5272617;28;20068;-69
2022/08/15 02:56:27;;;;;;;5.25;2.60;;;;;;;23.40;46.81;100194.66;5274502;28;20048;-70
2022/08/15 02:58:59;;;;;;;5.28;2.58;;;;;;;23.33;47.02;100194.75;5274516;28;20071;-69
2022/08/15 03:01:33;;;;;;;5.07;2.40;;;;;;;23.28;47.01;100187.44;5274098;28;20052;-69
2022/08/15 03:04:07;;;;;;;5.78;2.80;;;;;;;23.32;47.00;100185.13;5274943;28;20042;-69
2022/08/15 03:06:43;;;;;;;4.45;2.45;;;;;;;23.33;47.55;100197.44;5274174;28;20388;-69
2022/08/15 03:09:16;;;;;;;4.85;2.65;;;;;;;23.25;47.47;100201.25;5273620;28;20134;-69
2022/08/15 03:11:47;;;;;;;3.70;2.50;;;;;;;23.26;47.82;100200.22;5275767;28;20132;-69
2022/08/15 03:14:21;;;;;;;5.30;2.30;;;;;;;23.25;47.52;100203.13;5275389;28;20020;-69
2022/08/15 03:16:52;;;;;;;4.85;2.58;;;;;;;23.15;47.66;100206.38;5272143;28;20107;-69
2022/08/15 03:19:25;;;;;;;6.07;2.63;;;;;;;23.15;47.72;100209.03;5273719;28;20062;-70
2022/08/15 03:21:56;;;;;;;5.47;2.63;;;;;;;23.06;48.00;100203.19;5275099;28;20028;-70
2022/08/15 03:24:27;;;;;;;4.37;2.90;;;;;;;23.09;48.30;100196.56;5270855;28;20550;-70
2022/08/15 03:26:59;;;;;;;4.43;2.63;;;;;;;23.06;47.93;100192.50;5273733;28;20540;-70
2022/08/15 03:29:30;;;;;;;5.60;2.97;;;;;;;23.05;48.12;100198.06;5274277;28;20470;-70
2022/08/15 03:32:11;;;;;;;6.90;2.87;;;;;;;23.13;48.40;100191.59;5261163;28;20487;-70
2022/08/15 03:34:42;;;;;;;6.90;3.13;;;;;;;22.94;48.72;100199.66;5247408;28;20395;-70
2022/08/15 03:37:14;;;;;;;5.17;2.67;;;;;;;22.94;48.51;100202.34;5270667;28;20032;-70
2022/08/15 03:39:45;;;;;;;4.37;3.20;;;;;;;22.88;49.39;100197.88;5270690;28;20025;-70
2022/08/15 03:42:16;;;;;;;4.90;3.00;;;;;;;22.88;48.94;100187.19;5251750;28;20267;-70
2022/08/15 03:44:48;;;;;;;6.60;3.03;;;;;;;22.82;49.52;100194.25;5268179;28;20035;-70
2022/08/15 03:47:21;;;;;;;7.20;3.23;;;;;;;22.80;49.61;100196.31;5275202;28;20021;-70
2022/08/15 03:49:52;;;;;;;4.32;2.75;;;;;;;22.69;50.09;100197.13;5268737;28;20024;-70
2022/08/15 03:52:24;;;;;;;6.57;3.03;;;;;;;22.69;49.82;100204.28;5266709;28;20032;-70
2022/08/15 03:55:00;;;;;;;5.17;3.00;;;;;;;22.73;50.53;100216.16;5276437;28;20025;-70
2022/08/15 03:57:31;;;;;;;5.30;3.00;;;;;;;22.61;50.96;100213.41;5274766;28;20169;-69
2022/08/15 04:00:07;;;;;;;5.00;3.10;;;;;;;22.61;51.17;100213.41;5271238;28;20033;-69
2022/08/15 04:02:38;;;;;;;7.63;3.10;;;;;;;22.55;51.78;100212.47;5277775;28;20123;-69
2022/08/15 04:05:11;;;;;;;5.23;3.13;;;;;;;22.57;51.83;100209.56;5277935;28;20688;-70
2022/08/15 04:07:42;;;;;;;7.63;3.63;;;;;;;22.44;52.32;100194.53;5259705;28;20027;-69
2022/08/15 04:10:17;;;;;;;6.10;3.27;;;;;;;22.52;53.08;100199.56;5276707;28;20036;-69
2022/08/15 04:12:48;;;;;;;5.57;3.38;;;;;;;22.45;54.46;100198.84;5277112;28;20020;-69
2022/08/15 04:15:19;;;;;;;8.07;3.40;;;;;;;22.39;55.04;100201.56;5276030;28;20098;-69
2022/08/15 04:17:52;;;;;;;5.47;3.30;;;;;;;22.32;55.98;100202.47;5277926;28;20028;-69
2022/08/15 04:20:24;;;;;;;8.38;3.40;;;;;;;22.30;56.34;100209.06;5275869;28;20021;-69
2022/08/15 04:22:55;;;;;;;7.20;3.47;;;;;;;22.32;56.76;100204.34;5278574;28;20035;-69
2022/08/15 04:25:35;;;;;;;4.40;3.13;;;;;;;22.41;57.63;100208.31;5274937;28;20021;-69
2022/08/15 04:28:08;;;;;;;5.70;4.00;;;;;;;22.37;57.61;100212.47;5278332;28;20021;-69
2022/08/15 04:30:42;;;;;;;8.10;3.10;;;;;;;22.41;58.56;100213.66;5277112;28;20043;-69
2022/08/15 04:33:23;;;;;;;5.75;3.15;;;;;;;22.48;58.09;100206.41;5276434;28;20104;-69
2022/08/15 04:35:58;;;;;;;7.85;3.13;;;;;;;22.38;59.93;100222.13;5274404;28;20035;-69
2022/08/15 04:38:32;;;;;;;4.72;3.22;;;;;;;22.36;60.25;100208.19;5274594;28;20039;-70
2022/08/15 04:41:04;;;;;;;4.82;3.13;;;;;;;22.33;60.67;100214.78;5277564;28;20060;-70
2022/08/15 04:43:37;;;;;;;5.13;3.23;;;;;;;22.37;61.62;100215.16;5277838;28;20564;-70
2022/08/15 04:46:09;;;;;;;6.85;3.83;;;;;;;22.36;61.88;100212.72;5255658;28;20032;-69
2022/08/15 04:48:41;;;;;;;5.43;3.25;;;;;;;22.40;62.04;100220.06;5277407;28;20214;-69
2022/08/15 04:51:12;;;;;;;7.67;4.00;;;;;;;22.43;62.93;100214.28;5257956;28;20486;-69
2022/08/15 04:53:44;;;;;;;6.07;4.37;;;;;;;22.44;63.51;100213.22;5275947;28;20032;-69
2022/08/15 04:56:16;;;;;;;8.00;3.72;;;;;;;22.44;63.61;100209.75;5272725;28;20052;-69
2022/08/15 04:58:47;;;;;;;8.40;3.73;;;;;;;22.44;64.11;100210.56;5276679;28;20124;-69
2022/08/15 05:01:19;;;;;;;8.40;3.60;;;;;;;22.48;64.13;100217.06;5276095;28;20024;-69
2022/08/15 05:03:50;;;;;;;7.63;3.50;;;;;;;22.51;64.78;100216.63;5277947;28;20028;-69
2022/08/15 05:06:22;;;;;;;6.53;3.30;;;;;;;22.55;64.75;100222.34;5275393;28;20111;-69
2022/08/15 05:08:53;;;;;;;7.70;3.90;;;;;;;22.55;64.58;100219.69;5273463;28;20040;-69
2022/08/15 05:11:25;;;;;;;5.20;3.70;;;;;;;22.59;64.69;100215.50;5276949;28;20025;-69
2022/08/15 05:13:56;;;;;;;5.37;3.63;;;;;;;22.63;64.71;100215.88;5274568;28;20020;-69
2022/08/15 05:16:27;;;;;;;5.73;3.40;;;;;;;22.69;65.22;100212.28;5276042;28;20103;-69
2022/08/15 05:18:59;;;;;;;5.63;3.70;;;;;;;22.71;64.91;100235.06;5275544;28;20029;-69
2022/08/15 05:21:31;;;;;;;6.17;3.47;;;;;;;22.66;65.17;100229.59;5273745;28;20100;-69
2022/08/15 05:24:02;;;;;;;6.33;3.40;;;;;;;22.69;65.04;100239.84;5276346;28;20061;-69
2022/08/15 05:26:35;;;;;;;9.17;3.77;;;;;;;22.72;65.15;100242.03;5257785;28;20476;-69
2022/08/15 05:29:06;;;;;;;6.63;3.85;;;;;;;22.72;65.72;100242.03;5276102;28;20029;-70
2022/08/15 05:31:38;;;;;;;7.50;3.60;;;;;;;22.75;66.36;100248.78;5275550;28;20031;-69
2022/08/15 05:34:10;;;;;;;5.93;3.77;;;;;;;22.72;68.06;100249.25;5276455;28;20028;-69
2022/08/15 05:36:41;;;;;;;6.05;3.90;;;;;;;22.63;72.35;100240.72;5276593;28;20020;-69
2022/08/15 05:39:23;;;;;;;7.97;3.97;;;;;;;22.71;73.27;100248.41;5274807;28;20666;-68
2022/08/15 05:42:19;;;;;;;6.20;3.70;;;;;;;22.74;73.95;100249.84;5276450;28;20031;-68
2022/08/15 05:45:04;;;;;;;7.43;4.05;;;;;;;22.73;73.30;100250.84;5274241;28;20426;-69
2022/08/15 05:47:47;;;;;;;9.95;4.53;;;;;;;22.72;74.87;100252.72;5274861;28;20032;-69
2022/08/15 05:50:36;;;;;;;7.53;3.78;;;;;;;22.77;73.31;100252.88;5276652;28;20062;-69
2022/08/15 05:53:42;;;;;;;11.10;4.72;;;;;;;22.89;72.34;100249.44;5274062;28;20032;-69
2022/08/15 05:56:30;;;;;;;9.00;3.58;;;;;;;22.73;74.33;100250.84;5275969;28;20118;-69
2022/08/15 05:59:09;;;;;;;5.93;3.55;;;;;;;22.74;74.17;100249.84;5275638;28;20028;-69
2022/08/15 06:01:50;;;;;;;7.13;3.45;;;;;;;22.78;74.44;100251.84;5270213;28;20047;-69
2022/08/15 06:04:45;;;;;;;5.97;3.30;;;;;;;22.94;72.54;100253.09;5273510;28;20025;-69
2022/08/15 06:07:18;;;;;;;7.10;3.60;;;;;;;22.69;74.94;100261.19;5270764;28;20028;-69
2022/08/15 06:10:04;;;;;;;6.75;3.75;;;;;;;22.89;73.14;100260.94;5274229;28;20135;-69
2022/08/15 06:12:35;;;;;;;6.28;3.83;;;;;;;22.73;74.49;100258.88;5274633;28;20489;-69
2022/08/15 06:15:24;;;;;;;6.30;3.27;;;;;;;22.89;73.22;100262.81;5275577;28;20026;-69
2022/08/15 06:18:02;;;;;;;6.40;3.60;;;;;;;22.87;73.49;100260.34;5273783;28;20099;-69
2022/08/15 06:20:47;;;;;;;3.92;3.30;;;;;;;22.97;72.94;100265.19;5274267;28;20028;-69
2022/08/15 06:23:45;;;;;;;5.93;3.67;;;;;;;23.08;72.92;100266.28;5273317;28;20043;-69
2022/08/15 06:26:38;;;;;;;7.10;3.80;;;;;;;23.00;73.84;100262.88;5273582;28;20115;-69
2022/08/15 06:29:28;;;;;;;9.63;4.38;;;;;;;23.17;73.24;100259.56;5271480;28;20036;-69
2022/08/15 06:32:12;;;;;;;7.78;3.70;;;;;;;23.22;74.04;100263.22;5271319;28;20769;-69
2022/08/15 06:35:28;;;;;;;6.75;3.60;;;;;;;23.40;73.02;100266.84;5266981;28;20016;-69
2022/08/15 06:38:07;;;;;;;5.47;3.85;;;;;;;23.30;74.20;100262.88;5270608;28;20111;-69
2022/08/15 06:41:01;;;;;;;5.05;3.95;;;;;;;23.24;74.58;100258.44;5270707;28;20021;-69
2022/08/15 06:43:34;;;;;;;6.82;4.22;;;;;;;23.26;74.81;100263.53;5272702;28;20463;-69
2022/08/15 06:46:05;;;;;;;7.47;4.10;;;;;;;23.31;73.83;100253.00;5271119;28;20032;-68
2022/08/15 06:48:41;;;;;;;9.37;3.50;;;;;;;23.29;74.32;100244.38;5272433;28;20487;-69
2022/08/15 06:51:14;;;;;;;6.45;3.58;;;;;;;23.30;74.10;100264.75;5271477;28;20097;-68
2022/08/15 06:53:55;;;;;;;5.78;3.80;;;;;;;23.47;74.15;100270.22;5270609;28;20036;-69
2022/08/15 06:56:30;;;;;;;6.25;3.60;;;;;;;23.45;74.23;100274.97;5272782;28;20475;-69
2022/08/15 06:59:23;;;;;;;5.63;3.70;;;;;;;23.58;73.76;100274.78;5268575;28;20111;-69
2022/08/15 07:02:00;;;;;;;;;;;;;;;24.06;70.50;100270.34;5272003;28;20020;-69
2022/08/15 07:04:37;;;;;;;5.60;4.28;;;;;;;23.50;74.23;100269.78;5267653;28;19969;-69
2022/08/15 07:07:14;;;;;;;5.65;3.47;;;;;;;23.61;73.23;100263.66;5270280;28;20153;-69
2022/08/15 07:10:06;;;;;;;7.07;3.75;;;;;;;23.94;73.02;100262.28;5267519;28;20040;-69
2022/08/15 07:12:49;;;;;;;7.63;4.10;;;;;;;24.10;72.52;100258.94;5271098;28;20055;-69
2022/08/15 07:15:36;;;;;;;7.15;4.20;;;;;;;24.31;71.61;100256.69;5270080;28;20402;-69
2022/08/15 07:18:17;;;;;;;6.97;4.38;;;;;;;24.49;70.07;100253.91;5265758;28;20060;-69
2022/08/15 07:20:48;;;;;;;7.22;3.83;;;;;;;24.48;69.76;100258.47;5270609;28;20036;-69
2022/08/15 07:23:26;;;;;;;4.97;4.13;;;;;;;24.46;70.25;100249.03;5272440;28;20028;-69
2022/08/15 07:26:02;;;;;;;6.90;4.35;;;;;;;24.55;69.93;100263.69;5273517;28;20488;-69
2022/08/15 07:28:35;;;;;;;7.82;4.78;;;;;;;24.45;70.22;100258.13;5273823;28;20147;-69
2022/08/15 07:31:32;;;;;;;6.97;5.03;;;;;;;24.67;68.85;100256.44;5274284;28;20036;-68
2022/08/15 07:34:14;;;;;;;8.98;5.03;;;;;;;24.47;69.71;100261.34;5275513;28;20471;-68
2022/08/15 07:37:00;;;;;;;9.05;4.93;;;;;;;24.63;69.34;100259.81;5276297;28;20028;-69
2022/08/15 07:39:40;;;;;;;8.82;5.32;;;;;;;24.63;68.93;100257.16;5275496;28;20030;-71
2022/08/15 07:42:15;;;;;;;8.23;5.20;;;;;;;24.49;69.36;100260.06;5254133;28;20139;-68
2022/08/15 07:44:57;;;;;;;6.63;5.30;;;;;;;24.65;68.04;100263.06;5273559;28;20082;-69
2022/08/15 07:47:31;;;;;;;8.07;4.63;;;;;;;24.68;69.34;100265.28;5272786;28;20032;-69
2022/08/15 07:50:19;;;;;;;7.20;5.18;;;;;;;24.70;69.08;100269.34;5273694;28;20529;-69
2022/08/15 07:52:56;;;;;;;7.47;5.38;;;;;;;24.72;69.56;100269.09;5275555;28;20556;-69
2022/08/15 07:55:27;;;;;;;9.02;5.05;;;;;;;24.71;68.62;100267.50;5274480;28;20032;-69
2022/08/15 07:58:02;;;;;;;11.93;5.17;;;;;;;24.73;68.33;100260.81;5275421;28;20415;-69
2022/08/15 08:00:35;;;;;;;7.15;4.95;;;;;;;24.78;69.20;100270.84;5272269;28;20544;-69
2022/08/15 08:03:21;;;;;;;6.80;4.50;;;;;;;24.98;68.39;100273.91;5274443;28;20063;-69
2022/08/15 08:06:00;;;;;;;11.15;4.90;;;;;;;24.90;67.05;100282.34;5274135;28;20124;-69
2022/08/15 08:08:50;;;;;;;6.18;4.65;;;;;;;24.98;67.60;100279.28;5195495;28;2281595;-69
2022/08/15 08:11:42;;;;;;;8.10;4.35;;;;;;;25.20;66.66;100282.13;5275822;28;20044;-69
2022/08/15 08:14:35;;;;;;;5.80;4.33;;;;;;;25.38;65.87;100278.44;5275417;28;20036;-69
2022/08/15 08:17:13;;;;;;;6.80;4.35;;;;;;;25.30;65.54;100281.47;5271781;28;20286;-69
2022/08/15 08:20:01;;;;;;;9.45;4.10;;;;;;;25.53;66.26;100283.22;5269820;28;20105;-69
2022/08/15 08:22:50;;;;;;;7.03;4.28;;;;;;;25.69;64.70;100282.44;5276474;28;20506;-69
2022/08/15 08:25:48;;;;;;;9.18;4.47;;;;;;;25.80;63.41;100288.81;5274564;28;20028;-69
2022/08/15 08:28:42;;;;;;;5.75;4.15;;;;;;;25.72;63.30;100283.81;5241035;28;20079;-69
2022/08/15 08:31:34;;;;;;;6.75;4.68;;;;;;;25.63;63.77;100290.63;5275425;28;20052;-69
2022/08/15 08:34:14;;;;;;;6.57;4.18;;;;;;;25.51;64.53;100296.09;5272554;28;20030;-68
2022/08/15 08:37:06;;;;;;;7.93;4.18;;;;;;;25.63;64.69;100296.00;5275262;28;20032;-68
2022/08/15 08:39:46;;;;;;;7.90;4.45;;;;;;;25.60;64.07;100291.13;5272423;28;20024;-68
2022/08/15 08:42:25;;;;;;;7.85;3.88;;;;;;;25.45;64.96;100289.78;5272429;28;20024;-68
2022/08/15 08:45:15;;;;;;;7.30;4.22;;;;;;;25.61;63.95;100285.53;5258201;28;20020;-68
2022/08/15 08:47:52;;;;;;;6.43;4.25;;;;;;;25.39;65.26;100290.78;5270297;28;20028;-68
2022/08/15 08:50:29;;;;;;;8.02;4.47;;;;;;;25.31;66.00;100288.50;5274119;28;20364;-68
2022/08/15 08:53:14;;;;;;;7.63;4.15;;;;;;;25.27;65.55;100290.03;5272757;28;20437;-68
2022/08/15 08:55:54;;;;;;;7.25;4.70;;;;;;;25.26;65.74;100291.06;5264368;28;20074;-69
2022/08/15 08:58:36;;;;;;;8.25;4.15;;;;;;;25.29;65.59;100295.16;5269575;28;20346;-68
2022/08/15 09:01:12;;;;;;;9.77;4.63;;;;;;;25.17;66.40;100287.16;5272184;28;20655;-69
2022/08/15 09:03:51;;;;;;;8.55;4.72;;;;;;;25.21;67.07;100297.16;5273311;28;20145;-68
2022/08/15 09:06:31;;;;;;;6.20;4.03;;;;;;;25.26;66.98;100296.44;5273106;28;20040;-68
2022/08/15 09:09:23;;;;;;;7.75;5.03;;;;;;;25.36;66.04;100303.84;5274607;28;20047;-68
2022/08/15 09:12:03;;;;;;;8.88;4.70;;;;;;;25.23;67.15;100311.16;5273997;28;20024;-68
2022/08/15 09:14:40;;;;;;;9.05;4.82;;;;;;;25.08;68.11;100316.19;5272655;28;20135;-68
2022/08/15 09:17:14;;;;;;;7.28;4.82;;;;;;;25.13;67.95;100312.81;5274250;28;20523;-68
2022/08/15 09:19:59;;;;;;;6.95;4.30;;;;;;;25.39;67.56;100309.56;5272391;28;20020;-70
2022/08/15 09:22:31;;;;;;;6.03;4.47;;;;;;;25.29;67.04;100312.03;5269984;28;20428;-69
2022/08/15 09:25:03;;;;;;;7.83;5.20;;;;;;;25.44;67.67;100316.88;5271654;28;20440;-69
2022/08/15 09:27:49;;;;;;;7.05;4.90;;;;;;;25.57;65.69;100319.25;5271586;28;20441;-69
2022/08/15 09:30:21;;;;;;;6.75;5.05;;;;;;;25.49;67.70;100311.59;5272792;28;20044;-69
2022/08/15 09:33:28;;;;;;;7.63;4.72;;;;;;;25.86;65.56;100311.16;5274203;28;20036;-69
2022/08/15 09:36:30;;;;;;;8.68;5.40;;;;;;;25.79;65.46;100307.81;5274095;28;20082;-69
2022/08/15 09:39:22;;;;;;;8.57;5.43;;;;;;;25.83;65.36;100309.78;5271989;28;20032;-69
2022/08/15 09:42:15;;;;;;;8.35;5.55;;;;;;;25.76;65.28;100310.97;5272961;28;20523;-69
2022/08/15 09:45:13;;;;;;;9.40;6.20;;;;;;;26.00;64.13;100312.47;5274183;28;20035;-70
2022/08/15 09:48:14;;;;;;;9.43;5.80;;;;;;;26.05;64.57;100319.78;5262301;28;20039;-70
2022/08/15 09:51:20;;;;;;;7.72;5.50;;;;;;;26.29;63.84;100307.81;5271724;28;20457;-70
2022/08/15 09:54:12;;;;;;;6.22;5.18;;;;;;;26.24;64.64;100307.72;5228605;28;20040;-70
2022/08/15 09:56:44;;;;;;;8.32;5.05;;;;;;;26.22;63.69;100303.69;5254205;28;20029;-70
2022/08/15 09:59:20;;;;;;;10.23;6.07;;;;;;;26.26;63.33;100304.81;5271636;28;20083;-70
2022/08/15 10:02:21;;;;;;;9.10;5.80;;;;;;;26.44;62.30;100317.94;5268637;28;20521;-70
2022/08/15 10:04:54;;;;;;;9.73;5.25;;;;;;;26.36;62.47;100313.78;5270849;28;20101;-70
2022/08/15 10:07:41;;;;;;;7.72;5.57;;;;;;;26.52;61.03;100314.88;5273904;28;20021;-70
2022/08/15 10:10:20;;;;;;;9.77;5.90;;;;;;;26.41;62.31;100311.19;5267236;28;20048;-70
2022/08/15 10:13:06;;;;;;;8.52;5.68;;;;;;;26.55;61.63;100308.97;5268995;28;20067;-70
2022/08/15 10:15:44;;;;;;;10.10;5.20;;;;;;;26.58;61.46;100302.31;5273620;28;20028;-70
2022/08/15 10:18:38;;;;;;;9.38;5.32;;;;;;;26.89;60.45;100304.28;5271317;28;20063;-69
2022/08/15 10:21:19;;;;;;;9.57;5.60;;;;;;;26.85;59.91;100311.22;5259037;28;20070;-70
2022/08/15 10:23:52;;;;;;;9.63;5.10;;;;;;;26.69;60.83;100304.88;5272350;28;20060;-69
2022/08/15 10:26:27;;;;;;;8.75;5.35;;;;;;;26.74;59.51;100304.09;5270618;28;20048;-70
2022/08/15 10:29:24;;;;;;;8.30;4.97;;;;;;;26.84;59.02;100308.81;5268740;28;20384;-70
2022/08/15 10:31:59;;;;;;;7.55;5.30;;;;;;;26.86;58.54;100310.19;5271298;28;20495;-70
2022/08/15 10:34:34;;;;;;;7.30;4.68;;;;;;;26.78;59.48;100307.91;5273356;28;20033;-70
2022/08/15 10:37:19;;;;;;;6.93;4.78;;;;;;;27.04;58.54;100313.59;5273108;28;20463;-70
2022/08/15 10:40:20;;;;;;;6.53;4.25;;;;;;;27.05;57.72;100317.91;5253020;28;20028;-70
2022/08/15 10:43:22;;;;;;;5.82;4.20;;;;;;;27.11;57.80;100316.94;5266792;28;20024;-70
2022/08/15 10:45:59;;;;;;;6.78;4.72;;;;;;;26.82;58.77;100317.13;5268190;28;20021;-70
2022/08/15 10:49:03;;;;;;;7.38;4.90;;;;;;;26.92;58.95;100321.81;5272326;28;20115;-70
2022/08/15 10:52:12;;;;;;;6.25;4.47;;;;;;;27.08;57.81;100320.09;5264576;28;20726;-70
2022/08/15 10:54:57;;;;;;;9.82;4.32;;;;;;;26.85;59.03;100324.66;5268281;28;20024;-70
2022/08/15 10:57:46;;;;;;;7.40;4.97;;;;;;;26.80;59.57;100318.44;5271492;28;20052;-70
2022/08/15 11:00:37;;;;;;;7.97;4.72;;;;;;;26.89;58.74;100322.28;5270245;28;20039;-70
2022/08/15 11:03:20;;;;;;;9.20;4.40;;;;;;;26.71;58.52;100327.97;5270137;28;20031;-70
2022/08/15 11:06:00;;;;;;;;;;;;;;;27.33;56.11;100327.66;5270523;28;20483;-70
2022/08/15 11:08:34;;;;;;;7.97;4.40;;;;;;;26.55;59.19;100322.41;5270350;28;19916;-69
2022/08/15 11:11:10;;;;;;;7.93;4.38;;;;;;;26.53;59.83;100323.75;5251432;28;20550;-68
2022/08/15 11:13:50;;;;;;;5.85;4.50;;;;;;;26.62;60.01;100324.91;5271506;28;20039;-69
2022/08/15 11:16:35;;;;;;;6.65;4.68;;;;;;;26.58;59.63;100323.78;5270301;28;20025;-69
2022/08/15 11:19:32;;;;;;;6.53;4.25;;;;;;;26.55;60.50;100329.66;5270418;28;20428;-69
2022/08/15 11:22:08;;;;;;;8.75;4.90;;;;;;;26.43;60.61;100319.81;5269573;28;20037;-69
2022/08/15 11:24:40;;;;;;;9.00;4.60;;;;;;;26.33;60.07;100326.91;5269397;28;20037;-69
2022/08/15 11:27:22;;;;;;;7.82;4.47;;;;;;;26.48;59.60;100329.03;5269757;28;20499;-69
2022/08/15 11:29:57;;;;;;;9.57;4.53;;;;;;;26.50;59.29;100332.28;5269370;28;20058;-68
2022/08/15 11:32:32;;;;;;;8.02;4.43;;;;;;;26.42;59.82;100326.25;5271652;28;20024;-69
2022/08/15 11:35:20;;;;;;;6.57;5.05;;;;;;;26.62;58.73;100314.19;5269611;28;20589;-69
2022/08/15 11:37:55;;;;;;;7.90;4.50;;;;;;;26.59;60.03;100315.47;5271589;28;20032;-69
2022/08/15 11:40:30;;;;;;;6.60;4.25;;;;;;;26.64;59.86;100314.75;5271498;28;20017;-68
2022/08/15 11:43:03;;;;;;;5.97;4.35;;;;;;;26.83;59.11;100318.75;5269012;28;20052;-68
2022/08/15 11:45:40;;;;;;;7.03;4.07;;;;;;;26.93;57.49;100323.41;5270894;28;20020;-67
2022/08/15 11:48:18;;;;;;;7.53;4.30;;;;;;;27.14;57.83;100330.69;5268389;28;20027;-70
2022/08/15 11:51:02;;;;;;;6.15;4.90;;;;;;;27.28;55.32;100330.31;5270328;28;20103;-70
2022/08/15 11:53:40;;;;;;;5.85;4.32;;;;;;;27.31;55.77;100332.47;5270625;28;20043;-68
2022/08/15 11:56:22;;;;;;;7.45;4.07;;;;;;;27.35;55.65;100330.91;5271820;28;20481;-67
2022/08/15 11:58:53;;;;;;;5.65;3.95;;;;;;;27.45;53.64;100328.31;5270619;28;20024;-68
2022/08/15 12:01:31;;;;;;;7.90;4.67;;;;;;;27.50;55.29;100328.34;5244681;28;20666;-69
2022/08/15 12:04:05;;;;;;;7.95;4.07;;;;;;;27.47;54.97;100325.38;5264312;28;20552;-69
2022/08/15 12:06:40;;;;;;;7.78;4.20;;;;;;;27.59;55.65;100332.22;5268330;28;20039;-69
2022/08/15 12:09:26;;;;;;;6.18;4.50;;;;;;;27.63;53.27;100329.84;5272519;28;20037;-69
2022/08/15 12:11:58;;;;;;;6.13;4.28;;;;;;;27.53;54.02;100330.53;5272529;28;20035;-70
2022/08/15 12:14:30;;;;;;;6.35;4.00;;;;;;;27.70;52.65;100333.13;5273767;28;20032;-69
2022/08/15 12:17:05;;;;;;;7.95;4.72;;;;;;;27.60;53.47;100331.16;5273027;28;20064;-69
2022/08/15 12:19:46;;;;;;;6.68;4.10;;;;;;;27.78;53.09;100330.00;5274432;28;20387;-69